createdAt,value
2023-05-02T00:01:43.951Z,12.47
2023-05-02T00:04:11.051Z,11.60
2023-05-02T00:06:37.887Z,12.53
2023-05-02T00:09:04.732Z,12.93
2023-05-02T00:11:31.475Z,13.03
2023-05-02T00:13:58.258Z,12.60
2023-05-02T00:16:25.188Z,11.60
2023-05-02T00:18:52.001Z,12.10
2023-05-02T00:21:18.720Z,11.37
2023-05-02T00:23:45.527Z,10.23
2023-05-02T00:26:12.394Z,10.03
2023-05-02T00:28:40.051Z,10.03
2023-05-02T00:31:06.844Z,10.40
2023-05-02T00:33:33.852Z,10.87
2023-05-02T00:36:00.697Z,10.03
2023-05-02T00:38:27.472Z,10.20
2023-05-02T00:40:54.299Z,9.70
2023-05-02T00:43:21.294Z,10.27
2023-05-02T00:45:48.782Z,10.07
2023-05-02T00:48:17.898Z,9.43
2023-05-02T00:50:44.658Z,9.77
2023-05-02T00:53:11.487Z,9.63
2023-05-02T00:55:38.842Z,8.60
2023-05-02T00:58:11.882Z,8.07
2023-05-02T01:00:59.875Z,8.07
2023-05-02T01:03:47.318Z,8.53
2023-05-02T01:06:29.655Z,9.03
2023-05-02T01:09:13.033Z,9.20
2023-05-02T01:12:04.546Z,9.40
2023-05-02T01:14:38.107Z,9.53
2023-05-02T01:17:10.173Z,10.37
2023-05-02T01:19:41.873Z,11.17
2023-05-02T01:22:10.840Z,10.57
2023-05-02T01:24:54.737Z,11.07
2023-05-02T01:27:31.207Z,11.17
2023-05-02T01:29:59.396Z,10.60
2023-05-02T01:32:28.273Z,10.80
2023-05-02T01:35:02.193Z,11.83
2023-05-02T01:37:30.873Z,9.93
2023-05-02T01:40:01.393Z,10.00
2023-05-02T01:42:30.469Z,11.33
2023-05-02T01:45:01.483Z,10.97
2023-05-02T01:47:32.542Z,11.03
2023-05-02T01:50:00.368Z,11.07
2023-05-02T01:52:28.395Z,11.73
2023-05-02T01:55:02.580Z,10.97
2023-05-02T01:57:29.564Z,10.60
2023-05-02T02:00:01.315Z,12.60
2023-05-02T02:02:29.843Z,12.27
2023-05-02T02:04:58.047Z,12.13
2023-05-02T02:07:25.030Z,12.47
2023-05-02T02:09:52.873Z,13.03
2023-05-02T02:12:39.818Z,12.53
2023-05-02T02:15:39.759Z,12.80
2023-05-02T02:18:19.790Z,12.47
2023-05-02T02:20:48.848Z,12.97
2023-05-02T02:23:22.865Z,13.30
2023-05-02T02:25:52.282Z,12.93
2023-05-02T02:28:19.414Z,11.77
2023-05-02T02:30:46.413Z,13.57
2023-05-02T02:33:13.278Z,12.57
2023-05-02T02:35:47.926Z,13.03
2023-05-02T02:38:50.606Z,12.97
2023-05-02T02:41:46.936Z,12.00
2023-05-02T02:44:32.467Z,10.90
2023-05-02T02:47:46.942Z,8.23
2023-05-02T02:50:41.751Z,7.30
2023-05-02T02:53:15.566Z,7.50
2023-05-02T02:56:05.407Z,6.67
2023-05-02T02:58:46.161Z,6.07
2023-05-02T03:01:19.827Z,5.33
2023-05-02T03:03:51.981Z,4.27
2023-05-02T03:06:19.520Z,4.10
2023-05-02T03:08:46.576Z,4.03
2023-05-02T03:11:13.585Z,3.60
2023-05-02T03:13:40.559Z,3.83
2023-05-02T03:16:36.908Z,3.97
2023-05-02T03:19:05.191Z,3.93
2023-05-02T03:21:32.611Z,3.23
2023-05-02T03:24:00.895Z,3.43
2023-05-02T03:26:28.307Z,3.50
2023-05-02T03:28:56.478Z,3.70
2023-05-02T03:31:29.210Z,2.70
2023-05-02T03:33:56.046Z,2.50
2023-05-02T03:36:22.876Z,2.70
2023-05-02T03:38:49.884Z,1.97
2023-05-02T03:41:16.665Z,2.30
2023-05-02T03:43:46.635Z,2.23
2023-05-02T03:46:13.494Z,1.63
2023-05-02T03:48:43.132Z,1.50
2023-05-02T03:51:10.081Z,1.53
2023-05-02T03:53:37.389Z,1.57
2023-05-02T03:56:04.242Z,1.40
2023-05-02T03:58:30.935Z,1.27
2023-05-02T04:00:57.641Z,1.47
2023-05-02T04:03:24.717Z,0.90
2023-05-02T04:05:51.909Z,1.33
2023-05-02T04:08:19.476Z,1.20
2023-05-02T04:10:46.353Z,1.17
2023-05-02T04:13:16.204Z,1.30
2023-05-02T04:15:45.428Z,1.40
2023-05-02T04:18:12.190Z,1.20
2023-05-02T04:20:41.697Z,1.27
2023-05-02T04:23:08.396Z,1.23
2023-05-02T04:25:38.049Z,1.17
2023-05-02T04:28:05.868Z,1.20
2023-05-02T04:30:33.155Z,1.17
2023-05-02T04:32:59.977Z,1.50
2023-05-02T04:35:26.829Z,1.40
2023-05-02T04:37:53.703Z,1.23
2023-05-02T04:40:20.626Z,1.30
2023-05-02T04:42:47.341Z,1.30
2023-05-02T04:45:14.108Z,1.50
2023-05-02T04:47:40.981Z,1.40
2023-05-02T04:50:08.618Z,1.37
2023-05-02T04:52:38.516Z,1.23
2023-05-02T04:55:05.863Z,1.43
2023-05-02T04:57:32.575Z,1.03
2023-05-02T04:59:59.630Z,0.97
2023-05-02T05:02:27.048Z,0.83
2023-05-02T05:04:53.914Z,1.30
2023-05-02T05:07:20.701Z,1.10
2023-05-02T05:09:47.712Z,0.80
2023-05-02T05:12:14.596Z,1.13
2023-05-02T05:14:41.392Z,0.90
2023-05-02T05:17:08.250Z,1.00
2023-05-02T05:19:35.030Z,1.00
2023-05-02T05:22:01.868Z,1.53
2023-05-02T05:24:28.557Z,1.07
2023-05-02T05:26:55.239Z,1.37
2023-05-02T05:29:22.106Z,1.27
2023-05-02T05:31:50.106Z,1.47
2023-05-02T05:34:17.200Z,1.83
2023-05-02T05:36:46.215Z,1.13
2023-05-02T05:39:13.420Z,1.20
2023-05-02T05:41:40.214Z,1.20
2023-05-02T05:44:07.016Z,1.57
2023-05-02T05:46:33.828Z,1.40
2023-05-02T05:49:01.507Z,1.80
2023-05-02T05:51:28.788Z,1.50
2023-05-02T05:53:55.601Z,1.60
2023-05-02T05:56:23.310Z,1.43
2023-05-02T05:58:50.170Z,1.40
2023-05-02T06:01:16.977Z,1.40
2023-05-02T06:03:43.974Z,1.70
2023-05-02T06:06:10.938Z,1.27
2023-05-02T06:08:37.787Z,1.60
2023-05-02T06:11:10.388Z,1.90
2023-05-02T06:13:38.016Z,1.87
2023-05-02T06:16:05.617Z,1.87
2023-05-02T06:18:32.396Z,1.60
2023-05-02T06:21:06.972Z,1.67
2023-05-02T06:23:33.786Z,1.37
2023-05-02T06:26:04.435Z,2.03
2023-05-02T06:28:31.900Z,1.83
2023-05-02T06:31:05.991Z,2.07
2023-05-02T06:33:37.628Z,2.10
2023-05-02T06:36:07.316Z,2.27
2023-05-02T06:38:34.036Z,1.90
2023-05-02T06:41:03.231Z,1.70
2023-05-02T06:43:30.016Z,2.30
2023-05-02T06:45:56.870Z,1.97
2023-05-02T06:48:23.674Z,2.10
2023-05-02T06:50:53.204Z,2.83
2023-05-02T06:53:20.030Z,2.17
2023-05-02T06:55:48.496Z,2.40
2023-05-02T06:58:16.588Z,2.30
2023-05-02T07:00:43.341Z,1.93
2023-05-02T07:03:11.408Z,2.30
2023-05-02T07:05:38.355Z,2.67
2023-05-02T07:08:05.364Z,1.93
2023-05-02T07:10:32.330Z,2.13
2023-05-02T07:12:59.161Z,2.30
2023-05-02T07:15:25.902Z,2.67
2023-05-02T07:17:52.667Z,2.23
2023-05-02T07:20:20.049Z,3.03
2023-05-02T07:22:46.985Z,2.80
2023-05-02T07:25:13.868Z,3.00
2023-05-02T07:27:40.549Z,2.60
2023-05-02T07:30:07.947Z,2.50
2023-05-02T07:32:35.724Z,2.10
2023-05-02T07:35:02.527Z,2.40
2023-05-02T07:37:39.013Z,1.93
2023-05-02T07:40:07.992Z,1.70
2023-05-02T07:42:34.990Z,1.90
2023-05-02T07:45:01.978Z,2.00
2023-05-02T07:47:29.355Z,2.10
2023-05-02T07:49:56.586Z,2.23
2023-05-02T07:52:23.852Z,2.43
2023-05-02T07:54:51.205Z,2.20
2023-05-02T07:57:18.622Z,1.93
2023-05-02T07:59:48.004Z,2.00
2023-05-02T08:02:14.797Z,2.00
2023-05-02T08:04:41.817Z,1.60
2023-05-02T08:07:08.681Z,2.03
2023-05-02T08:09:35.421Z,1.90
2023-05-02T08:12:03.238Z,1.73
2023-05-02T08:14:30.049Z,2.00
2023-05-02T08:16:56.805Z,1.90
2023-05-02T08:19:23.634Z,1.57
2023-05-02T08:21:50.658Z,1.50
2023-05-02T08:24:17.310Z,1.30
2023-05-02T08:26:44.047Z,1.40
2023-05-02T08:29:11.825Z,1.47
2023-05-02T08:31:40.848Z,1.20
2023-05-02T08:34:07.736Z,1.57
2023-05-02T08:36:37.628Z,1.20
2023-05-02T08:39:04.571Z,1.93
2023-05-02T08:41:31.465Z,1.90
2023-05-02T08:43:59.806Z,1.60
2023-05-02T08:46:35.374Z,2.03
2023-05-02T08:49:03.375Z,2.13
2023-05-02T08:51:32.770Z,2.33
2023-05-02T08:54:01.412Z,2.03
2023-05-02T08:56:28.207Z,1.63
2023-05-02T08:58:55.096Z,1.83
2023-05-02T09:01:24.255Z,2.40
2023-05-02T09:03:55.973Z,2.00
2023-05-02T09:06:23.268Z,2.27
2023-05-02T09:08:55.096Z,2.27
2023-05-02T09:11:22.260Z,2.37
2023-05-02T09:13:51.413Z,2.20
2023-05-02T09:16:22.925Z,2.23
2023-05-02T09:18:52.836Z,2.37
2023-05-02T09:21:22.064Z,2.20
2023-05-02T09:23:50.739Z,1.50
2023-05-02T09:26:18.653Z,2.40
2023-05-02T09:28:55.894Z,1.70
2023-05-02T09:34:11.884Z,1.70
2023-05-02T09:36:46.619Z,2.00
2023-05-02T09:39:15.934Z,1.70
2023-05-02T09:41:44.074Z,1.40
2023-05-02T09:44:17.092Z,1.60
2023-05-02T09:46:45.467Z,1.90
2023-05-02T09:49:12.380Z,1.47
2023-05-02T09:51:39.157Z,1.37
2023-05-02T09:54:05.917Z,1.73
2023-05-02T09:56:51.704Z,1.43
2023-05-02T09:59:18.470Z,1.70
2023-05-02T10:01:48.050Z,1.60
2023-05-02T10:04:19.545Z,1.40
2023-05-02T10:06:48.185Z,1.70
2023-05-02T10:09:19.708Z,1.50
2023-05-02T10:11:52.235Z,1.80
2023-05-02T10:14:21.722Z,1.67
2023-05-02T10:16:55.692Z,2.03
2023-05-02T10:19:49.793Z,1.93
2023-05-02T10:22:20.179Z,1.60
2023-05-02T10:24:50.612Z,1.70
2023-05-02T10:27:17.520Z,1.97
2023-05-02T10:29:44.909Z,1.67
2023-05-02T10:32:13.848Z,1.77
2023-05-02T10:34:42.179Z,1.60
2023-05-02T10:37:09.182Z,1.87
2023-05-02T10:39:36.069Z,1.90
2023-05-02T10:42:04.625Z,2.20
2023-05-02T10:44:34.308Z,2.00
2023-05-02T10:47:01.247Z,1.90
2023-05-02T10:49:31.760Z,2.00
2023-05-02T10:51:59.150Z,2.70
2023-05-02T10:54:26.162Z,2.10
2023-05-02T10:57:06.351Z,1.80
2023-05-02T10:59:43.103Z,1.53
2023-05-02T11:02:32.877Z,1.57
2023-05-02T11:05:07.475Z,1.37
2023-05-02T11:07:36.162Z,1.37
2023-05-02T11:10:18.232Z,1.20
2023-05-02T11:12:54.324Z,1.40
2023-05-02T11:15:27.745Z,1.80
2023-05-02T11:18:08.191Z,1.30
2023-05-02T11:20:36.830Z,1.80
2023-05-02T11:23:21.830Z,1.23
2023-05-02T11:25:49.738Z,1.40
2023-05-02T11:28:37.790Z,1.20
2023-05-02T11:31:09.723Z,1.20
2023-05-02T11:33:36.964Z,1.63
2023-05-02T11:36:04.087Z,1.60
2023-05-02T11:38:38.809Z,1.87
2023-05-02T11:41:08.790Z,1.17
2023-05-02T11:43:35.751Z,1.40
2023-05-02T11:46:02.978Z,1.50
2023-05-02T11:48:31.183Z,1.63
2023-05-02T11:51:03.688Z,1.60
2023-05-02T11:53:31.490Z,1.70
2023-05-02T11:56:05.460Z,1.30
2023-05-02T11:58:34.165Z,1.60
2023-05-02T12:01:17.427Z,1.40
2023-05-02T12:03:45.060Z,1.30
2023-05-02T12:06:17.098Z,1.23
2023-05-02T12:08:44.731Z,1.40
2023-05-02T12:11:16.124Z,1.40
2023-05-02T12:13:48.109Z,1.43
2023-05-02T12:16:15.993Z,1.50
2023-05-02T12:18:43.479Z,1.37
2023-05-02T12:21:10.607Z,1.33
2023-05-02T12:23:37.884Z,1.60
2023-05-02T12:26:24.388Z,1.47
2023-05-02T12:28:52.262Z,1.60
2023-05-02T12:31:19.961Z,1.60
2023-05-02T12:33:52.546Z,1.60
2023-05-02T12:36:19.876Z,1.60
2023-05-02T12:38:57.006Z,1.43
2023-05-02T12:41:35.271Z,1.80
2023-05-02T12:44:02.872Z,1.60
2023-05-02T12:46:31.555Z,1.40
2023-05-02T12:49:12.487Z,1.97
2023-05-02T12:51:40.038Z,1.83
2023-05-02T12:54:07.339Z,1.60
2023-05-02T12:56:41.483Z,1.63
2023-05-02T12:59:08.585Z,1.90
2023-05-02T13:01:38.216Z,1.60
2023-05-02T13:04:05.826Z,1.40
2023-05-02T13:06:32.812Z,1.80
2023-05-02T13:09:00.088Z,2.10
2023-05-02T13:11:27.112Z,1.73
2023-05-02T13:13:54.045Z,1.97
2023-05-02T13:16:21.361Z,1.87
2023-05-02T13:18:48.366Z,1.87
2023-05-02T13:21:15.256Z,1.97
2023-05-02T13:23:44.131Z,2.03
2023-05-02T13:26:11.605Z,1.83
2023-05-02T13:28:41.320Z,2.40
2023-05-02T13:31:08.163Z,1.87
2023-05-02T13:33:34.984Z,1.60
2023-05-02T13:36:01.781Z,2.03
2023-05-02T13:38:28.566Z,2.10
2023-05-02T13:40:55.360Z,2.30
2023-05-02T13:43:22.090Z,1.93
2023-05-02T13:45:49.233Z,1.77
2023-05-02T13:48:16.306Z,2.20
2023-05-02T13:50:43.348Z,2.17
2023-05-02T13:53:10.194Z,1.93
2023-05-02T13:55:37.247Z,2.20
2023-05-02T13:58:03.945Z,2.23
2023-05-02T14:00:30.829Z,2.37
2023-05-02T14:02:57.860Z,2.07
2023-05-02T14:05:24.721Z,2.10
2023-05-02T14:07:51.503Z,2.20
2023-05-02T14:10:18.333Z,2.10
2023-05-02T14:12:45.135Z,2.20
2023-05-02T14:15:12.639Z,2.00
2023-05-02T14:17:39.479Z,2.33
2023-05-02T14:20:07.933Z,2.13
2023-05-02T14:22:34.779Z,2.40
2023-05-02T14:25:01.544Z,2.40
2023-05-02T14:27:30.863Z,2.60
2023-05-02T14:29:57.598Z,2.10
2023-05-02T14:32:24.594Z,2.40
2023-05-02T14:34:51.381Z,2.33
2023-05-02T14:37:18.111Z,2.00
2023-05-02T14:39:46.621Z,2.30
2023-05-02T14:42:14.998Z,2.87
2023-05-02T14:44:42.331Z,2.50
2023-05-02T14:47:09.508Z,2.60
2023-05-02T14:49:36.668Z,2.50
2023-05-02T14:52:03.599Z,2.67
2023-05-02T14:54:30.773Z,2.50
2023-05-02T14:56:58.165Z,2.33
2023-05-02T14:59:28.005Z,2.83
2023-05-02T15:01:54.929Z,2.40
2023-05-02T15:04:24.656Z,2.60
2023-05-02T15:06:54.309Z,2.43
2023-05-02T15:09:27.211Z,2.53
2023-05-02T15:11:54.038Z,2.63
2023-05-02T15:14:21.251Z,2.10
2023-05-02T15:16:48.424Z,2.60
2023-05-02T15:19:15.401Z,2.37
2023-05-02T15:21:42.767Z,2.77
2023-05-02T15:24:10.626Z,2.47
2023-05-02T15:26:41.086Z,2.27
2023-05-02T15:29:08.033Z,2.33
2023-05-02T15:31:34.882Z,2.80
2023-05-02T15:34:01.774Z,2.30
2023-05-02T15:36:29.893Z,2.70
2023-05-02T15:38:57.352Z,2.23
2023-05-02T15:41:28.359Z,2.23
2023-05-02T15:43:55.282Z,2.70
2023-05-02T15:46:22.378Z,2.57
2023-05-02T15:48:49.696Z,2.63
2023-05-02T15:51:16.810Z,2.67
2023-05-02T15:53:45.028Z,2.40
2023-05-02T15:56:12.204Z,2.43
2023-05-02T15:58:39.426Z,1.90
2023-05-02T16:01:06.644Z,2.20
2023-05-02T16:03:34.416Z,2.17
2023-05-02T16:06:01.612Z,2.23
2023-05-02T16:08:28.851Z,2.07
2023-05-02T16:10:57.935Z,2.30
2023-05-02T16:13:24.857Z,2.20
2023-05-02T16:15:52.607Z,2.30
2023-05-02T16:18:20.365Z,2.30
2023-05-02T16:20:47.888Z,2.37
2023-05-02T16:23:17.767Z,1.83
2023-05-02T16:25:44.435Z,1.80
2023-05-02T16:28:14.018Z,2.73
2023-05-02T16:30:41.782Z,2.17
2023-05-02T16:33:08.690Z,2.27
2023-05-02T16:35:35.658Z,1.80
2023-05-02T16:38:04.988Z,1.97
2023-05-02T16:40:31.915Z,2.00
2023-05-02T16:42:59.067Z,2.20
2023-05-02T16:45:25.922Z,1.87
2023-05-02T16:47:56.021Z,2.30
2023-05-02T16:50:22.902Z,2.03
2023-05-02T16:52:49.799Z,2.00
2023-05-02T16:55:16.906Z,1.80
2023-05-02T16:57:43.862Z,2.13
2023-05-02T17:00:12.468Z,2.43
2023-05-02T17:02:42.212Z,2.00
2023-05-02T17:05:10.724Z,2.17
2023-05-02T17:07:37.820Z,2.00
2023-05-02T17:10:05.244Z,1.90
2023-05-02T17:12:32.532Z,1.80
2023-05-02T17:15:01.463Z,1.80
2023-05-02T17:17:29.044Z,1.70
2023-05-02T17:19:55.920Z,1.53
2023-05-02T17:22:22.784Z,1.90
2023-05-02T17:24:52.841Z,1.60
2023-05-02T17:27:19.844Z,1.93
2023-05-02T17:29:46.762Z,1.83
2023-05-02T17:32:15.694Z,1.90
2023-05-02T17:34:43.589Z,1.40
2023-05-02T17:37:10.778Z,1.60
2023-05-02T17:39:37.623Z,2.33
2023-05-02T17:42:04.555Z,1.83
2023-05-02T17:44:33.842Z,1.40
2023-05-02T17:47:00.549Z,1.77
2023-05-02T17:49:27.405Z,1.50
2023-05-02T17:51:54.391Z,1.80
2023-05-02T17:54:21.365Z,1.60
2023-05-02T17:56:48.186Z,1.87
2023-05-02T17:59:15.084Z,1.50
2023-05-02T18:01:41.832Z,1.50
2023-05-02T18:04:12.977Z,1.27
2023-05-02T18:06:40.213Z,1.57
2023-05-02T18:09:07.781Z,1.37
2023-05-02T18:11:35.219Z,1.67
2023-05-02T18:14:06.216Z,1.90
2023-05-02T18:16:36.518Z,1.50
2023-05-02T18:19:03.558Z,1.50
2023-05-02T18:21:33.934Z,1.57
2023-05-02T18:24:00.773Z,1.80
2023-05-02T18:26:27.684Z,2.30
2023-05-02T18:28:55.072Z,1.97
2023-05-02T18:31:22.078Z,2.30
2023-05-02T18:33:50.328Z,1.90
2023-05-02T18:36:23.622Z,1.90
2023-05-02T18:38:50.399Z,1.70
2023-05-02T18:41:18.626Z,1.77
2023-05-02T18:43:48.894Z,2.20
2023-05-02T18:46:15.692Z,1.73
2023-05-02T18:48:42.700Z,1.60
2023-05-02T18:51:09.614Z,2.30
2023-05-02T18:53:36.545Z,1.50
2023-05-02T18:56:03.416Z,1.90
2023-05-02T18:58:30.122Z,1.47
2023-05-02T19:00:57.046Z,1.70
2023-05-02T19:03:26.971Z,1.17
2023-05-02T19:05:57.047Z,1.80
2023-05-02T19:08:23.805Z,1.53
2023-05-02T19:10:50.720Z,1.53
2023-05-02T19:13:17.778Z,1.70
2023-05-02T19:15:44.557Z,1.80
2023-05-02T19:18:11.577Z,1.70
2023-05-02T19:20:38.836Z,1.63
2023-05-02T19:23:19.214Z,1.73
2023-05-02T19:25:47.405Z,1.83
2023-05-02T19:28:15.877Z,2.00
2023-05-02T19:30:44.327Z,1.97
2023-05-02T19:33:11.855Z,2.20
2023-05-02T19:35:38.798Z,1.40
2023-05-02T19:38:05.684Z,1.30
2023-05-02T19:40:32.441Z,1.63
2023-05-02T19:42:59.200Z,1.80
2023-05-02T19:45:26.128Z,1.40
2023-05-02T19:47:55.442Z,1.70
2023-05-02T19:50:22.958Z,1.50
2023-05-02T19:52:50.441Z,1.60
2023-05-02T19:55:18.519Z,1.50
2023-05-02T19:57:45.423Z,1.60
2023-05-02T20:00:13.998Z,1.60
2023-05-02T20:02:41.068Z,1.30
2023-05-02T20:05:08.237Z,1.43
2023-05-02T20:07:34.919Z,1.57
2023-05-02T20:10:02.213Z,1.40
2023-05-02T20:12:29.255Z,1.20
2023-05-02T20:14:56.144Z,1.87
2023-05-02T20:17:23.194Z,1.20
2023-05-02T20:19:50.121Z,1.20
2023-05-02T20:22:18.157Z,1.20
2023-05-02T20:24:45.072Z,1.20
2023-05-02T20:27:11.842Z,1.23
2023-05-02T20:29:38.581Z,0.90
2023-05-02T20:32:05.781Z,1.53
2023-05-02T20:34:35.669Z,1.33
2023-05-02T20:37:06.364Z,1.30
2023-05-02T20:39:33.197Z,1.37
2023-05-02T20:42:00.039Z,1.50
2023-05-02T20:44:28.534Z,1.30
2023-05-02T20:46:55.451Z,1.43
2023-05-02T20:49:22.287Z,1.43
2023-05-02T20:51:50.195Z,1.30
2023-05-02T20:54:17.115Z,1.30
2023-05-02T20:56:43.993Z,1.63
2023-05-02T20:59:11.537Z,1.50
2023-05-02T21:01:38.730Z,1.20
2023-05-02T21:04:05.581Z,1.40
2023-05-02T21:06:32.754Z,1.47
2023-05-02T21:09:00.784Z,1.20
2023-05-02T21:11:27.555Z,1.13
2023-05-02T21:13:54.534Z,1.27
2023-05-02T21:16:25.713Z,1.27
2023-05-02T21:18:52.674Z,1.60
2023-05-02T21:21:19.490Z,1.43
2023-05-02T21:23:46.409Z,1.43
2023-05-02T21:26:13.545Z,1.90
2023-05-02T21:28:40.410Z,1.67
2023-05-02T21:31:08.023Z,1.83
2023-05-02T21:33:34.947Z,1.80
2023-05-02T21:36:01.902Z,2.00
2023-05-02T21:38:29.117Z,1.50
2023-05-02T21:40:56.067Z,1.77
2023-05-02T21:43:22.944Z,2.43
2023-05-02T21:45:53.192Z,1.67
2023-05-02T21:48:20.138Z,1.87
2023-05-02T21:50:47.024Z,1.73
2023-05-02T21:53:14.128Z,2.10
2023-05-02T21:55:41.167Z,1.63
2023-05-02T21:58:09.582Z,2.37
2023-05-02T22:00:43.354Z,1.90
2023-05-02T22:03:11.712Z,2.00
2023-05-02T22:05:39.976Z,2.30
2023-05-02T22:08:11.221Z,2.03
2023-05-02T22:10:49.172Z,2.03
2023-05-02T22:13:16.402Z,1.90
2023-05-02T22:15:47.252Z,2.60
2023-05-02T22:18:17.833Z,1.97
2023-05-02T22:20:45.448Z,2.03
2023-05-02T22:23:12.695Z,2.00
2023-05-02T22:25:44.898Z,2.10
2023-05-02T22:28:12.255Z,2.00
2023-05-02T22:30:44.847Z,1.63
2023-05-02T22:33:12.223Z,1.97
2023-05-02T22:35:39.216Z,1.90
2023-05-02T22:38:10.696Z,2.30
2023-05-02T22:40:40.456Z,1.97
2023-05-02T22:43:08.190Z,2.47
2023-05-02T22:45:36.484Z,1.80
2023-05-02T22:48:03.480Z,2.20
2023-05-02T22:50:30.527Z,2.23
2023-05-02T22:52:58.686Z,1.90
2023-05-02T22:55:25.925Z,2.20
2023-05-02T22:57:52.784Z,1.83
2023-05-02T23:00:19.803Z,2.17
2023-05-02T23:02:49.388Z,2.23
2023-05-02T23:05:16.510Z,2.50
2023-05-02T23:07:43.632Z,2.20
2023-05-02T23:10:10.806Z,2.40
2023-05-02T23:12:37.784Z,2.97
2023-05-02T23:15:04.950Z,2.43
2023-05-02T23:17:31.915Z,1.83
2023-05-02T23:19:58.938Z,2.20
2023-05-02T23:22:25.700Z,2.27
2023-05-02T23:24:52.639Z,3.00
2023-05-02T23:27:22.472Z,2.80
2023-05-02T23:29:49.300Z,2.50
2023-05-02T23:32:16.885Z,2.37
2023-05-02T23:34:46.674Z,2.70
2023-05-02T23:37:14.563Z,2.30
2023-05-02T23:39:44.197Z,2.70
2023-05-02T23:42:11.004Z,2.47
2023-05-02T23:44:38.047Z,2.53
2023-05-02T23:47:05.113Z,2.70
2023-05-02T23:49:31.973Z,2.50
2023-05-02T23:51:58.767Z,2.20
2023-05-02T23:54:25.863Z,2.17
2023-05-02T23:56:53.575Z,2.07
2023-05-02T23:59:22.780Z,2.30
